Airfield :
LOGIN :

Register | Disclaimer

   EN    FR    IT 

 










Legend :    VFR   Marginal VFR   IFR   Intensive IFR   Very Intensive IFR
Visi :
Ceiling :
>= 8 km
>= 3000ft
5 to 8 km
1000 to 3000 ft
1500m to 5 km
500 to 1000 ft
800 to 1500m
200 to 500 ft
< 800m
< 200 ft
Symbols :   Thunderstorms  Fog  Heavy snow  Heavy precipitations  Wind > 20 kt
SIGMETs :     Misc.  Thunderstorms  Icing  Turbulence  Mountain Waves  Volcanic Ashes






- Airport Elevation : 364 ft
- IATA code : FRA


EDDF - Frankfurt Int.

CURRENT METAR :
  • 100520Z 27007KT 9999 FEW020 03/00 Q1025 NOSIG

EXPIRED METARs :
  • 100450Z 28009KT 9999 FEW020 04/00 Q1025 NOSIG
  • 100420Z 29013KT 9999 FEW020 04/00 Q1024 NOSIG
  • 100350Z 28012KT 9999 FEW020 04/00 Q1024 NOSIG
  • 100320Z 27007KT 240V300 9999 FEW021 05/00 Q1023 NOSIG
  • 100250Z 29011KT 9999 FEW022 05/01 Q1022 NOSIG

TAF AMD TAF EDDF
Valid from the 10 at 04:00 until the 11 at 06:00 UTC


100424Z 1004/1106 29011KT 9999 SCT030
BECMG 1006/1009 23007KT
BECMG 1017/1020 17007KT
BECMG 1102/1105 BKN030



MET'MAP, your aeronautical weather chart ! - Copyright ORBIFLY December 2007 - Disclaimer

ORBIFLY MET'MAP TEAM :

Programming & Development : Alexandra Zaïnal
Concept & original design : Baudouin d'Aumeries
Assistance for programming : Marc-Olivier Méhu
Technical & hardware support : Manuel Goepfert

Contact : metmap@orbifly.com




SOURCES & CREDITS :

   NOAA